createdAt,value
2017-03-26T00:00:52.087Z,42.08
2017-03-26T00:01:13.807Z,42.25
2017-03-26T00:02:16.318Z,42.37
2017-03-26T00:02:38.023Z,42.86
2017-03-26T00:02:59.780Z,43.12
2017-03-26T00:03:58.114Z,42.89
2017-03-26T00:04:56.363Z,42.96
2017-03-26T00:05:18.103Z,42.87
2017-03-26T00:05:49.356Z,42.57
2017-03-26T00:06:11.063Z,42.57
2017-03-26T00:06:32.758Z,42.76
2017-03-26T00:06:59.255Z,42.48
2017-03-26T00:07:20.971Z,42.46
2017-03-26T00:07:42.686Z,42.38
2017-03-26T00:08:04.380Z,42.39
2017-03-26T00:08:26.068Z,42.42
2017-03-26T00:08:47.786Z,42.34
2017-03-26T00:09:19.047Z,42.55
2017-03-26T00:09:40.768Z,42.96
2017-03-26T00:10:02.594Z,43.00
2017-03-26T00:10:33.870Z,42.77
2017-03-26T00:10:55.583Z,42.90
2017-03-26T00:11:17.308Z,43.02
2017-03-26T00:11:48.571Z,43.08
2017-03-26T00:12:10.282Z,43.19
2017-03-26T00:12:32.053Z,43.60
2017-03-26T00:12:58.503Z,43.60
2017-03-26T00:13:20.197Z,43.39
2017-03-26T00:13:41.899Z,43.34
2017-03-26T00:14:44.414Z,42.96
2017-03-26T00:15:42.677Z,42.66
2017-03-26T00:16:04.399Z,42.68
2017-03-26T00:16:26.112Z,43.06
2017-03-26T00:17:28.616Z,43.18
2017-03-26T00:18:26.870Z,43.40
2017-03-26T00:19:25.342Z,43.71
2017-03-26T00:20:32.653Z,43.74
2017-03-26T00:20:54.412Z,43.55
2017-03-26T00:21:56.919Z,42.75
2017-03-26T00:22:18.629Z,42.69
2017-03-26T00:22:40.338Z,42.57
2017-03-26T00:23:02.061Z,42.57
2017-03-26T00:23:23.776Z,42.62
2017-03-26T00:24:22.106Z,42.44
2017-03-26T00:24:48.600Z,42.64
2017-03-26T00:25:51.099Z,42.59
2017-03-26T00:26:17.585Z,42.51
2017-03-26T00:26:39.288Z,42.66
2017-03-26T00:27:01.011Z,42.71
2017-03-26T00:27:59.273Z,42.64
2017-03-26T00:28:30.528Z,42.80
2017-03-26T00:28:52.251Z,42.67
2017-03-26T00:29:13.974Z,43.00
2017-03-26T00:29:35.699Z,43.50
2017-03-26T00:29:57.459Z,44.11
2017-03-26T00:30:19.202Z,44.76
2017-03-26T00:30:40.927Z,45.40
2017-03-26T00:31:02.674Z,45.72
2017-03-26T00:31:24.407Z,45.60
2017-03-26T00:31:46.132Z,45.19
2017-03-26T00:32:07.864Z,45.14
2017-03-26T00:33:10.427Z,44.87
2017-03-26T00:33:32.201Z,44.77
2017-03-26T00:33:53.916Z,44.44
2017-03-26T00:34:15.625Z,44.52
2017-03-26T00:34:37.348Z,44.46
2017-03-26T00:34:59.073Z,44.34
2017-03-26T00:35:20.851Z,44.35
2017-03-26T00:35:42.579Z,44.17
2017-03-26T00:36:04.331Z,43.93
2017-03-26T00:36:26.067Z,43.83
2017-03-26T00:36:52.573Z,43.89
2017-03-26T00:37:14.282Z,43.78
2017-03-26T00:37:36.019Z,43.69
2017-03-26T00:37:57.743Z,43.86
2017-03-26T00:38:19.485Z,43.88
2017-03-26T00:38:41.208Z,43.67
2017-03-26T00:39:07.710Z,43.78
2017-03-26T00:39:29.494Z,43.61
2017-03-26T00:39:51.235Z,43.66
2017-03-26T00:40:17.671Z,43.67
2017-03-26T00:40:39.397Z,43.59
2017-03-26T00:41:10.666Z,43.81
2017-03-26T00:41:32.385Z,43.81
2017-03-26T00:42:03.669Z,43.89
2017-03-26T00:42:25.397Z,44.01
2017-03-26T00:42:56.656Z,44.12
2017-03-26T00:43:18.399Z,43.76
2017-03-26T00:43:44.893Z,44.04
2017-03-26T00:44:06.587Z,44.24
2017-03-26T00:44:28.290Z,43.91
2017-03-26T00:44:54.764Z,43.74
2017-03-26T00:45:16.492Z,43.62
2017-03-26T00:45:47.742Z,43.71
2017-03-26T00:46:09.464Z,43.80
2017-03-26T00:46:31.182Z,43.85
2017-03-26T00:46:52.936Z,44.22
2017-03-26T00:47:14.659Z,44.13
2017-03-26T00:47:36.371Z,44.34
2017-03-26T00:47:58.089Z,44.85
2017-03-26T00:48:19.797Z,45.50
2017-03-26T00:49:22.316Z,45.97
2017-03-26T00:50:20.582Z,45.76
2017-03-26T00:51:18.974Z,45.69
2017-03-26T00:52:21.498Z,44.92
2017-03-26T00:52:43.242Z,44.69
2017-03-26T00:53:04.961Z,44.79
2017-03-26T00:53:27.693Z,44.77
2017-03-26T00:53:49.390Z,44.96
2017-03-26T00:54:11.086Z,44.85
2017-03-26T00:55:09.391Z,44.71
2017-03-26T00:55:31.086Z,44.68
2017-03-26T00:55:52.789Z,44.52
2017-03-26T00:56:14.484Z,44.58
2017-03-26T00:56:36.418Z,44.75
2017-03-26T00:56:58.197Z,44.82
2017-03-26T00:57:24.752Z,45.00
2017-03-26T00:57:46.507Z,44.89
2017-03-26T00:58:08.353Z,44.99
2017-03-26T00:59:11.453Z,44.81
2017-03-26T01:00:13.964Z,44.57
2017-03-26T01:00:35.692Z,44.66
2017-03-26T01:00:57.427Z,44.71
2017-03-26T01:01:19.246Z,44.71
2017-03-26T01:01:40.977Z,44.85
2017-03-26T01:02:02.717Z,45.17
2017-03-26T01:02:24.410Z,45.33
2017-03-26T01:02:46.099Z,45.11
2017-03-26T01:03:07.800Z,44.84
2017-03-26T01:04:10.318Z,45.02
2017-03-26T01:04:32.026Z,45.27
2017-03-26T01:05:03.286Z,45.82
2017-03-26T01:05:25.005Z,45.67
2017-03-26T01:05:46.752Z,45.81
2017-03-26T01:06:18.020Z,46.06
2017-03-26T01:06:39.728Z,46.26
2017-03-26T01:07:01.446Z,45.90
2017-03-26T01:07:32.713Z,45.62
2017-03-26T01:07:54.431Z,45.41
2017-03-26T01:08:25.691Z,45.47
2017-03-26T01:08:47.405Z,45.45
2017-03-26T01:09:09.113Z,45.33
2017-03-26T01:09:40.371Z,45.69
2017-03-26T01:10:02.086Z,45.59
2017-03-26T01:11:04.588Z,44.75
2017-03-26T01:11:26.291Z,44.51
2017-03-26T01:12:33.581Z,44.32
2017-03-26T01:12:55.268Z,44.54
2017-03-26T01:13:16.970Z,44.61
2017-03-26T01:13:38.690Z,44.54
2017-03-26T01:14:00.391Z,44.69
2017-03-26T01:15:02.896Z,45.06
2017-03-26T01:15:24.614Z,45.75
2017-03-26T01:15:46.308Z,45.67
2017-03-26T01:16:08.024Z,45.48
2017-03-26T01:16:29.740Z,45.49
2017-03-26T01:16:51.462Z,45.85
2017-03-26T01:17:13.156Z,46.05
2017-03-26T01:17:34.868Z,46.01
2017-03-26T01:18:01.388Z,45.89
2017-03-26T01:18:23.123Z,45.70
2017-03-26T01:18:44.870Z,45.48
2017-03-26T01:19:43.201Z,45.51
2017-03-26T01:20:09.691Z,45.60
2017-03-26T01:21:12.196Z,45.78
2017-03-26T01:21:43.456Z,45.96
2017-03-26T01:22:05.185Z,46.41
2017-03-26T01:22:26.907Z,46.42
2017-03-26T01:22:53.391Z,46.01
2017-03-26T01:23:15.156Z,45.89
2017-03-26T01:24:17.673Z,46.10
2017-03-26T01:24:39.413Z,46.16
2017-03-26T01:25:01.153Z,46.23
2017-03-26T01:25:59.492Z,46.37
2017-03-26T01:26:21.185Z,46.43
2017-03-26T01:26:42.877Z,47.02
2017-03-26T01:27:04.639Z,47.16
2017-03-26T01:27:26.348Z,46.56
2017-03-26T01:28:56.935Z,46.83
2017-03-26T01:29:18.633Z,47.02
2017-03-26T01:29:40.368Z,47.06
2017-03-26T01:30:02.086Z,46.72
2017-03-26T01:30:28.589Z,46.35
2017-03-26T01:30:50.289Z,46.22
2017-03-26T01:31:11.979Z,46.29
2017-03-26T01:31:33.695Z,46.04
2017-03-26T01:31:55.422Z,45.83
2017-03-26T01:32:17.198Z,46.22
2017-03-26T01:32:38.940Z,46.87
2017-03-26T01:33:00.696Z,46.99
2017-03-26T01:33:22.417Z,46.85
2017-03-26T01:33:44.143Z,46.73
2017-03-26T01:34:05.877Z,46.59
2017-03-26T01:34:27.585Z,46.40
2017-03-26T01:34:49.330Z,45.86
2017-03-26T01:35:11.067Z,45.66
2017-03-26T01:35:32.796Z,46.09
2017-03-26T01:35:54.513Z,46.63
2017-03-26T01:36:20.979Z,47.17
2017-03-26T01:36:52.233Z,47.11
2017-03-26T01:37:14.002Z,46.60
2017-03-26T01:37:35.716Z,46.36
2017-03-26T01:37:57.427Z,46.41
2017-03-26T01:38:19.146Z,46.56
2017-03-26T01:38:40.877Z,46.30
2017-03-26T01:39:02.612Z,46.13
2017-03-26T01:39:24.344Z,46.07
2017-03-26T01:39:46.085Z,46.31
2017-03-26T01:40:07.830Z,46.35
2017-03-26T01:40:29.566Z,46.36
2017-03-26T01:40:51.302Z,46.17
2017-03-26T01:41:13.021Z,46.62
2017-03-26T01:42:20.349Z,47.05
2017-03-26T01:42:42.081Z,46.57
2017-03-26T01:43:44.586Z,46.13
2017-03-26T01:44:06.294Z,46.13
2017-03-26T01:45:08.828Z,46.33
2017-03-26T01:46:11.331Z,46.29
2017-03-26T01:46:33.049Z,46.07
2017-03-26T01:46:54.754Z,45.92
2017-03-26T01:47:21.226Z,46.03
2017-03-26T01:47:42.987Z,46.25
2017-03-26T01:48:04.722Z,46.31
2017-03-26T01:49:07.233Z,45.91
2017-03-26T01:49:28.935Z,45.67
2017-03-26T01:50:00.194Z,45.69
2017-03-26T01:50:21.885Z,45.70
2017-03-26T01:50:53.137Z,45.33
2017-03-26T01:51:14.843Z,45.54
2017-03-26T01:52:13.111Z,46.29
2017-03-26T01:52:34.841Z,46.17
2017-03-26T01:52:56.570Z,46.29
2017-03-26T01:53:18.313Z,46.62
2017-03-26T01:53:40.063Z,46.55
2017-03-26T01:54:01.769Z,46.36
2017-03-26T01:54:23.479Z,46.26
2017-03-26T01:54:45.186Z,46.39
2017-03-26T01:55:06.899Z,46.34
2017-03-26T01:55:28.601Z,46.20
2017-03-26T01:55:50.367Z,46.68
2017-03-26T01:56:12.075Z,46.54
2017-03-26T01:56:33.828Z,46.44
2017-03-26T01:56:55.615Z,46.55
2017-03-26T01:57:17.338Z,46.72
2017-03-26T01:57:39.061Z,46.99
2017-03-26T01:58:00.789Z,47.25
2017-03-26T01:58:22.515Z,47.25
2017-03-26T01:58:44.241Z,46.77
2017-03-26T01:59:05.973Z,46.82
2017-03-26T01:59:27.690Z,46.92
2017-03-26T01:59:49.433Z,46.58
2017-03-26T02:00:11.164Z,46.43
2017-03-26T02:00:32.908Z,46.48
2017-03-26T02:00:54.722Z,46.39
2017-03-26T02:01:16.407Z,46.29
2017-03-26T02:01:38.181Z,46.06
2017-03-26T02:01:59.934Z,46.12
2017-03-26T02:02:21.688Z,46.36
2017-03-26T02:02:43.442Z,46.21
2017-03-26T02:03:05.189Z,46.31
2017-03-26T02:03:26.920Z,46.56
2017-03-26T02:03:48.661Z,46.70
2017-03-26T02:04:10.399Z,46.95
2017-03-26T02:04:32.166Z,46.87
2017-03-26T02:04:53.911Z,47.10
2017-03-26T02:05:15.725Z,46.98
2017-03-26T02:05:37.491Z,46.67
2017-03-26T02:05:59.231Z,47.02
2017-03-26T02:06:21.010Z,47.39
2017-03-26T02:06:42.748Z,47.52
2017-03-26T02:07:04.457Z,47.57
2017-03-26T02:07:26.164Z,47.35
2017-03-26T02:07:47.903Z,47.50
2017-03-26T02:08:09.594Z,47.50
2017-03-26T02:08:31.291Z,47.31
2017-03-26T02:08:52.999Z,47.41
2017-03-26T02:09:14.696Z,47.74
2017-03-26T02:09:36.420Z,47.94
2017-03-26T02:09:58.109Z,47.83
2017-03-26T02:10:19.817Z,47.60
2017-03-26T02:10:41.534Z,47.39
2017-03-26T02:11:03.287Z,47.08
2017-03-26T02:11:25.019Z,46.99
2017-03-26T02:11:46.756Z,47.49
2017-03-26T02:12:08.486Z,47.82
2017-03-26T02:12:30.210Z,47.72
2017-03-26T02:12:51.960Z,47.53
2017-03-26T02:13:59.930Z,46.66
2017-03-26T02:14:31.213Z,46.54
2017-03-26T02:14:52.957Z,46.45
2017-03-26T02:15:24.210Z,46.94
2017-03-26T02:15:45.962Z,47.07
2017-03-26T02:16:07.675Z,46.86
2017-03-26T02:16:34.187Z,46.80
2017-03-26T02:16:55.892Z,46.68
2017-03-26T02:17:22.407Z,46.86
2017-03-26T02:17:44.186Z,46.95
2017-03-26T02:18:10.696Z,47.56
2017-03-26T02:18:32.420Z,47.89
2017-03-26T02:18:58.910Z,48.03
2017-03-26T02:19:20.662Z,47.75
2017-03-26T02:19:47.157Z,47.47
2017-03-26T02:20:13.660Z,47.44
2017-03-26T02:20:35.363Z,47.62
2017-03-26T02:20:57.079Z,47.71
2017-03-26T02:21:18.771Z,47.85
2017-03-26T02:21:40.473Z,48.20
2017-03-26T02:22:02.204Z,48.11
2017-03-26T02:22:23.959Z,47.89
2017-03-26T02:22:45.610Z,47.79
2017-03-26T02:23:07.344Z,47.88
2017-03-26T02:23:29.077Z,47.56
2017-03-26T02:23:55.573Z,47.21
2017-03-26T02:24:26.837Z,47.46
2017-03-26T02:24:48.572Z,47.38
2017-03-26T02:25:51.100Z,47.01
2017-03-26T02:26:12.792Z,47.58
2017-03-26T02:26:34.570Z,48.00
2017-03-26T02:26:56.273Z,48.14
2017-03-26T02:27:17.977Z,48.28
2017-03-26T02:27:39.684Z,48.01
2017-03-26T02:28:01.415Z,47.67
2017-03-26T02:28:23.170Z,47.50
2017-03-26T02:28:44.890Z,47.36
2017-03-26T02:29:06.607Z,47.09
2017-03-26T02:29:28.342Z,47.10
2017-03-26T02:29:54.871Z,46.78
2017-03-26T02:30:21.376Z,46.91
2017-03-26T02:30:43.120Z,46.98
2017-03-26T02:31:14.380Z,47.53
2017-03-26T02:31:36.073Z,47.23
2017-03-26T02:31:57.809Z,47.01
2017-03-26T02:32:19.611Z,47.00
2017-03-26T02:32:50.863Z,47.16
2017-03-26T02:33:12.624Z,47.04
2017-03-26T02:33:34.373Z,47.21
2017-03-26T02:33:56.111Z,47.17
2017-03-26T02:34:17.846Z,47.04
2017-03-26T02:34:39.563Z,47.22
2017-03-26T02:35:10.827Z,47.28
2017-03-26T02:35:32.556Z,47.27
2017-03-26T02:35:54.259Z,47.63
2017-03-26T02:36:15.974Z,47.90
2017-03-26T02:36:37.697Z,48.11
2017-03-26T02:36:59.402Z,48.11
2017-03-26T02:37:21.144Z,47.92
2017-03-26T02:37:42.863Z,47.79
2017-03-26T02:38:04.609Z,47.78
2017-03-26T02:38:26.322Z,47.76
2017-03-26T02:39:33.616Z,48.55
2017-03-26T02:39:55.350Z,48.31
2017-03-26T02:40:57.876Z,49.07
2017-03-26T02:41:19.621Z,49.66
2017-03-26T02:41:41.352Z,49.65
2017-03-26T02:42:03.080Z,49.72
2017-03-26T02:42:24.817Z,49.95
2017-03-26T02:42:46.570Z,49.85
2017-03-26T02:43:08.305Z,49.36
2017-03-26T02:43:30.034Z,48.95
2017-03-26T02:43:51.764Z,48.92
2017-03-26T02:44:13.500Z,48.80
2017-03-26T02:44:35.266Z,49.02
2017-03-26T02:44:56.976Z,49.00
2017-03-26T02:45:18.687Z,49.07
2017-03-26T02:45:40.441Z,49.09
2017-03-26T02:46:02.208Z,48.89
2017-03-26T02:46:23.961Z,48.53
2017-03-26T02:46:45.690Z,48.36
2017-03-26T02:47:07.417Z,48.66
2017-03-26T02:47:29.142Z,49.17
2017-03-26T02:47:50.891Z,49.21
2017-03-26T02:48:12.625Z,49.04
2017-03-26T02:48:34.399Z,48.80
2017-03-26T02:48:56.160Z,48.81
2017-03-26T02:49:17.901Z,48.53
2017-03-26T02:49:39.644Z,48.24
2017-03-26T02:50:01.375Z,48.32
2017-03-26T02:50:23.085Z,48.27
2017-03-26T02:50:44.828Z,48.26
2017-03-26T02:51:06.562Z,48.31
2017-03-26T02:51:28.315Z,48.13
2017-03-26T02:51:50.037Z,48.07
2017-03-26T02:52:11.766Z,48.08
2017-03-26T02:52:33.508Z,48.18
2017-03-26T02:52:55.234Z,48.04
2017-03-26T02:53:16.984Z,48.03
2017-03-26T02:53:38.715Z,47.94
2017-03-26T02:54:00.481Z,47.71
2017-03-26T02:54:22.250Z,47.84
2017-03-26T02:54:44.004Z,47.94
2017-03-26T02:55:05.728Z,47.85
2017-03-26T02:55:27.433Z,47.74
2017-03-26T02:55:49.128Z,47.80
2017-03-26T02:56:10.843Z,48.21
2017-03-26T02:56:32.533Z,48.38
2017-03-26T02:56:54.272Z,48.64
2017-03-26T02:57:15.978Z,48.61
2017-03-26T02:57:37.720Z,48.55
2017-03-26T02:57:59.489Z,48.71
2017-03-26T02:58:21.194Z,48.63
2017-03-26T02:58:42.917Z,48.64
2017-03-26T02:59:04.672Z,48.73
2017-03-26T03:00:02.999Z,48.85
2017-03-26T03:00:24.763Z,48.56
2017-03-26T03:00:46.489Z,48.81
2017-03-26T03:01:08.249Z,49.07
2017-03-26T03:01:29.986Z,49.43
2017-03-26T03:01:51.731Z,49.73
2017-03-26T03:02:13.456Z,50.16
2017-03-26T03:02:35.196Z,50.66
2017-03-26T03:02:56.926Z,50.52
2017-03-26T03:03:18.624Z,50.21
2017-03-26T03:03:40.320Z,50.07
2017-03-26T03:04:02.051Z,50.14
2017-03-26T03:04:23.785Z,49.99
2017-03-26T03:04:45.504Z,49.83
2017-03-26T03:05:07.245Z,49.56
2017-03-26T03:05:29.003Z,49.19
2017-03-26T03:07:08.094Z,49.02
2017-03-26T03:07:34.584Z,49.30
2017-03-26T03:08:01.071Z,49.75
2017-03-26T03:08:22.847Z,49.88
2017-03-26T03:08:44.583Z,50.17
2017-03-26T03:09:06.342Z,50.14
2017-03-26T03:09:28.072Z,49.69
2017-03-26T03:09:49.856Z,49.38
2017-03-26T03:10:11.564Z,49.27
2017-03-26T03:10:38.099Z,48.93
2017-03-26T03:11:04.583Z,49.02
2017-03-26T03:11:26.325Z,48.92
2017-03-26T03:11:48.093Z,48.69
2017-03-26T03:12:09.838Z,48.41
2017-03-26T03:12:31.579Z,48.46
2017-03-26T03:12:53.330Z,48.57
2017-03-26T03:13:15.072Z,48.50
2017-03-26T03:13:39.512Z,48.58
2017-03-26T03:14:01.177Z,48.70
2017-03-26T03:14:22.960Z,48.94
2017-03-26T03:14:44.745Z,49.63
2017-03-26T03:15:06.466Z,50.05
2017-03-26T03:15:28.216Z,50.61
2017-03-26T03:15:49.957Z,51.05
2017-03-26T03:16:11.710Z,51.22
2017-03-26T03:16:33.416Z,50.92
2017-03-26T03:16:55.171Z,50.62
2017-03-26T03:17:16.894Z,50.50
2017-03-26T03:17:38.626Z,50.06
2017-03-26T03:18:09.892Z,50.25
2017-03-26T03:18:31.613Z,50.36
2017-03-26T03:18:58.096Z,50.21
2017-03-26T03:19:24.590Z,49.65
2017-03-26T03:19:46.351Z,49.24
2017-03-26T03:20:17.603Z,48.99
2017-03-26T03:20:39.329Z,49.14
2017-03-26T03:21:05.849Z,49.35
2017-03-26T03:21:27.593Z,48.98
2017-03-26T03:21:58.882Z,48.98
2017-03-26T03:22:20.614Z,48.68
2017-03-26T03:22:51.877Z,49.01
2017-03-26T03:23:13.593Z,48.96
2017-03-26T03:23:35.303Z,48.83
2017-03-26T03:24:06.553Z,48.68
2017-03-26T03:24:28.380Z,48.63
2017-03-26T03:24:50.124Z,48.56
2017-03-26T03:25:11.861Z,48.57
2017-03-26T03:25:33.583Z,48.57
2017-03-26T03:25:55.331Z,48.84
2017-03-26T03:26:17.059Z,49.04
2017-03-26T03:26:38.789Z,48.95
2017-03-26T03:27:00.510Z,48.69
2017-03-26T03:28:03.077Z,48.81
2017-03-26T03:28:24.809Z,48.91
2017-03-26T03:28:46.537Z,48.82
2017-03-26T03:29:08.282Z,48.72
2017-03-26T03:29:30.092Z,48.80
2017-03-26T03:29:51.827Z,49.00
2017-03-26T03:30:13.567Z,48.92
2017-03-26T03:30:35.297Z,48.86
2017-03-26T03:30:57.047Z,49.11
2017-03-26T03:31:18.782Z,49.29
2017-03-26T03:31:40.563Z,49.18
2017-03-26T03:32:02.301Z,48.92
2017-03-26T03:32:24.048Z,48.83
2017-03-26T03:32:50.533Z,48.86
2017-03-26T03:33:53.061Z,48.83
2017-03-26T03:34:14.856Z,48.98
2017-03-26T03:34:36.604Z,48.99
2017-03-26T03:34:58.317Z,48.66
2017-03-26T03:35:20.095Z,48.60
2017-03-26T03:35:41.846Z,48.65
2017-03-26T03:36:03.600Z,48.64
2017-03-26T03:37:06.125Z,48.37
2017-03-26T03:37:27.921Z,48.89
2017-03-26T03:37:49.633Z,49.42
2017-03-26T03:38:11.321Z,49.38
2017-03-26T03:38:33.138Z,49.48
2017-03-26T03:38:54.861Z,49.46
2017-03-26T03:39:16.586Z,49.37
2017-03-26T03:39:38.342Z,49.17
2017-03-26T03:40:00.077Z,49.00
2017-03-26T03:40:21.810Z,49.09
2017-03-26T03:40:43.552Z,49.06
2017-03-26T03:41:05.282Z,48.91
2017-03-26T03:41:27.026Z,48.76
2017-03-26T03:41:48.735Z,48.72
2017-03-26T03:42:10.424Z,48.84
2017-03-26T03:42:32.165Z,49.03
2017-03-26T03:42:53.882Z,49.32
2017-03-26T03:43:15.615Z,49.12
2017-03-26T03:43:37.348Z,48.93
2017-03-26T03:43:59.074Z,49.22
2017-03-26T03:44:20.785Z,49.16
2017-03-26T03:44:42.547Z,49.17
2017-03-26T03:45:04.361Z,49.00
2017-03-26T03:45:26.559Z,48.99
2017-03-26T03:45:48.268Z,48.89
2017-03-26T03:46:10.011Z,48.89
2017-03-26T03:46:31.744Z,49.25
2017-03-26T03:46:53.507Z,49.34
2017-03-26T03:47:15.235Z,49.28
2017-03-26T03:47:36.959Z,49.32
2017-03-26T03:47:58.710Z,49.07
2017-03-26T03:48:20.437Z,49.21
2017-03-26T03:49:22.947Z,48.99
2017-03-26T03:49:44.668Z,49.14
2017-03-26T03:50:06.355Z,49.09
2017-03-26T03:50:28.054Z,49.14
2017-03-26T03:50:49.836Z,49.12
2017-03-26T03:51:11.574Z,49.51
2017-03-26T03:51:33.343Z,49.68
2017-03-26T03:51:55.087Z,50.19
2017-03-26T03:52:16.901Z,50.78
2017-03-26T03:52:39.227Z,51.08
2017-03-26T03:53:00.951Z,51.44
2017-03-26T03:53:22.691Z,51.73
2017-03-26T03:53:44.469Z,51.49
2017-03-26T03:54:06.202Z,51.34
2017-03-26T03:54:27.936Z,51.04
2017-03-26T03:54:49.676Z,50.40
2017-03-26T03:55:11.431Z,50.23
2017-03-26T03:55:33.145Z,50.34
2017-03-26T03:55:54.926Z,50.45
2017-03-26T03:56:16.674Z,50.74
2017-03-26T03:56:38.455Z,50.67
2017-03-26T03:57:00.181Z,50.37
2017-03-26T03:57:21.930Z,50.32
2017-03-26T03:57:43.685Z,50.27
2017-03-26T03:58:05.409Z,50.19
2017-03-26T03:58:27.160Z,49.86
2017-03-26T03:58:48.915Z,49.77
2017-03-26T03:59:10.663Z,49.79
2017-03-26T03:59:32.387Z,49.73
2017-03-26T03:59:54.126Z,49.63
2017-03-26T04:00:15.864Z,49.58
2017-03-26T04:00:37.588Z,49.57
2017-03-26T04:00:59.310Z,49.49
2017-03-26T04:01:25.805Z,49.35
2017-03-26T04:01:47.507Z,49.41
2017-03-26T04:02:09.263Z,49.40
2017-03-26T04:02:31.023Z,49.39
2017-03-26T04:02:52.737Z,49.21
2017-03-26T04:03:14.461Z,49.16
2017-03-26T04:03:36.202Z,49.18
2017-03-26T04:03:57.932Z,48.83
2017-03-26T04:04:19.673Z,49.03
2017-03-26T04:04:41.392Z,49.19
2017-03-26T04:05:03.121Z,49.11
2017-03-26T04:05:24.866Z,49.70
2017-03-26T04:05:46.595Z,50.15
2017-03-26T04:06:08.311Z,50.35
2017-03-26T04:06:30.051Z,50.30
2017-03-26T04:07:28.371Z,49.71
2017-03-26T04:07:50.097Z,49.69
2017-03-26T04:08:11.798Z,49.46
2017-03-26T04:08:33.516Z,49.43
2017-03-26T04:08:55.248Z,49.28
2017-03-26T04:09:17.056Z,48.98
2017-03-26T04:09:38.793Z,48.77
2017-03-26T04:10:00.513Z,48.96
2017-03-26T04:10:22.286Z,48.83
2017-03-26T04:10:43.995Z,48.88
2017-03-26T04:11:15.256Z,49.24
2017-03-26T04:11:37.998Z,49.35
2017-03-26T04:12:04.478Z,49.90
2017-03-26T04:12:26.219Z,50.10
2017-03-26T04:12:47.947Z,50.06
2017-03-26T04:13:09.736Z,50.13
2017-03-26T04:13:31.532Z,50.26
2017-03-26T04:13:53.269Z,49.92
2017-03-26T04:14:15.003Z,49.67
2017-03-26T04:14:36.736Z,49.38
2017-03-26T04:14:58.473Z,49.48
2017-03-26T04:15:20.196Z,49.86
2017-03-26T04:15:41.958Z,50.08
2017-03-26T04:16:08.459Z,49.93
2017-03-26T04:16:34.954Z,49.78
2017-03-26T04:16:56.730Z,49.67
2017-03-26T04:17:23.321Z,49.75
2017-03-26T04:17:45.078Z,49.78
2017-03-26T04:18:19.293Z,49.73
2017-03-26T04:18:41.151Z,49.48
2017-03-26T04:19:12.472Z,49.60
2017-03-26T04:19:34.220Z,49.81
2017-03-26T04:20:05.716Z,49.38
2017-03-26T04:20:30.193Z,49.28
2017-03-26T04:20:56.672Z,49.77
2017-03-26T04:21:18.651Z,49.96
2017-03-26T04:21:45.309Z,50.31
2017-03-26T04:22:07.078Z,50.93
2017-03-26T04:22:33.854Z,51.00
2017-03-26T04:22:56.230Z,50.89
2017-03-26T04:23:27.541Z,50.64
2017-03-26T04:23:54.312Z,50.52
2017-03-26T04:24:20.838Z,50.19
2017-03-26T04:24:42.590Z,49.98
2017-03-26T04:25:13.998Z,49.81
2017-03-26T04:25:35.693Z,49.63
2017-03-26T04:26:06.992Z,50.41
2017-03-26T04:26:28.859Z,50.52
2017-03-26T04:27:00.151Z,50.36
2017-03-26T04:27:21.886Z,50.04
2017-03-26T04:27:53.209Z,50.08
2017-03-26T04:28:15.042Z,50.18
2017-03-26T04:28:46.381Z,50.06
2017-03-26T04:29:08.206Z,49.82
2017-03-26T04:30:11.251Z,49.87
2017-03-26T04:31:18.811Z,50.15
2017-03-26T04:31:40.582Z,50.00
2017-03-26T04:32:07.282Z,49.82
2017-03-26T04:32:31.234Z,49.56
2017-03-26T04:33:32.151Z,50.36
2017-03-26T04:33:53.994Z,50.48
2017-03-26T04:34:15.997Z,50.40
2017-03-26T04:34:37.788Z,50.04
2017-03-26T04:34:59.597Z,49.91
2017-03-26T04:35:21.509Z,50.33
2017-03-26T04:35:43.325Z,50.92
2017-03-26T04:36:05.251Z,51.39
2017-03-26T04:36:27.198Z,51.67
2017-03-26T04:36:49.024Z,51.99
2017-03-26T04:37:11.033Z,51.78
2017-03-26T04:37:32.845Z,51.46
2017-03-26T04:37:54.600Z,51.32
2017-03-26T04:38:16.518Z,51.49
2017-03-26T04:38:38.362Z,51.51
2017-03-26T04:39:00.319Z,51.30
2017-03-26T04:39:22.188Z,51.36
2017-03-26T04:39:44.739Z,51.29
2017-03-26T04:40:06.433Z,51.21
2017-03-26T04:40:28.683Z,51.46
2017-03-26T04:40:50.706Z,51.46
2017-03-26T04:41:12.476Z,51.18
2017-03-26T04:41:34.355Z,50.92
2017-03-26T04:41:56.213Z,50.93
2017-03-26T04:42:18.071Z,50.68
2017-03-26T04:42:39.926Z,50.33
2017-03-26T04:43:01.666Z,49.98
2017-03-26T04:43:23.547Z,49.92
2017-03-26T04:43:45.440Z,49.83
2017-03-26T04:44:07.231Z,49.83
2017-03-26T04:44:28.962Z,50.02
2017-03-26T04:45:32.499Z,49.48
2017-03-26T04:46:01.842Z,50.06
2017-03-26T04:46:23.787Z,50.88
2017-03-26T04:46:55.090Z,50.92
2017-03-26T04:47:17.930Z,50.88
2017-03-26T04:47:49.280Z,50.45
2017-03-26T04:48:11.208Z,50.29
2017-03-26T04:48:37.690Z,50.30
2017-03-26T04:48:59.514Z,50.31
2017-03-26T04:49:26.311Z,50.30
2017-03-26T04:49:48.121Z,49.99
2017-03-26T04:50:14.738Z,50.24
2017-03-26T04:50:36.563Z,50.24
2017-03-26T04:51:03.151Z,49.90
2017-03-26T04:51:25.004Z,50.03
2017-03-26T04:51:46.763Z,50.67
2017-03-26T04:52:56.448Z,52.05
2017-03-26T04:53:18.273Z,52.43
2017-03-26T04:53:49.674Z,52.69
2017-03-26T04:54:11.367Z,52.42
2017-03-26T04:54:42.685Z,52.00
2017-03-26T04:55:04.451Z,51.64
2017-03-26T04:55:26.204Z,51.39
2017-03-26T04:55:52.743Z,51.51
2017-03-26T04:56:14.643Z,51.28
2017-03-26T04:56:41.293Z,51.48
2017-03-26T04:57:03.117Z,51.78
2017-03-26T04:58:10.494Z,51.38
2017-03-26T04:58:34.910Z,50.95
2017-03-26T04:59:38.504Z,50.58
2017-03-26T05:00:05.035Z,50.38
2017-03-26T05:00:26.959Z,50.28
2017-03-26T05:01:25.452Z,50.22
2017-03-26T05:01:52.164Z,50.06
2017-03-26T05:02:18.740Z,50.29
2017-03-26T05:02:40.674Z,50.53
2017-03-26T05:03:07.271Z,50.62
2017-03-26T05:03:29.075Z,50.60
2017-03-26T05:03:55.620Z,50.58
2017-03-26T05:04:17.439Z,50.83
2017-03-26T05:04:43.962Z,50.96
2017-03-26T05:05:05.812Z,50.49
2017-03-26T05:05:32.423Z,50.33
2017-03-26T05:05:56.976Z,50.22
2017-03-26T05:06:23.712Z,49.94
2017-03-26T05:06:48.348Z,50.01
2017-03-26T05:07:15.059Z,50.07
2017-03-26T05:07:36.889Z,50.09
2017-03-26T05:08:03.720Z,50.52
2017-03-26T05:08:25.483Z,50.65
2017-03-26T05:08:52.141Z,50.66
2017-03-26T05:09:14.017Z,50.39
2017-03-26T05:09:35.803Z,50.21
2017-03-26T05:10:07.098Z,50.04
2017-03-26T05:10:28.941Z,49.98
2017-03-26T05:10:50.706Z,50.08
2017-03-26T05:11:17.244Z,50.11
2017-03-26T05:11:39.104Z,49.98
2017-03-26T05:12:00.864Z,49.88
2017-03-26T05:12:32.163Z,49.73
2017-03-26T05:12:54.011Z,49.86
2017-03-26T05:13:15.888Z,50.04
2017-03-26T05:13:47.223Z,50.80
2017-03-26T05:14:09.055Z,50.95
2017-03-26T05:14:30.801Z,50.89
2017-03-26T05:14:57.346Z,50.77
2017-03-26T05:15:19.165Z,50.88
2017-03-26T05:16:58.393Z,50.74
2017-03-26T05:17:20.115Z,50.71
2017-03-26T05:17:41.855Z,50.70
2017-03-26T05:18:03.607Z,50.51
2017-03-26T05:18:25.360Z,50.51
2017-03-26T05:18:47.552Z,50.47
2017-03-26T05:19:09.303Z,50.42
2017-03-26T05:19:31.095Z,50.49
2017-03-26T05:19:55.999Z,50.55
2017-03-26T05:20:54.836Z,51.15
2017-03-26T05:21:21.600Z,51.40
2017-03-26T05:21:48.225Z,51.15
2017-03-26T05:22:10.100Z,51.12
2017-03-26T05:22:31.948Z,51.29
2017-03-26T05:22:58.505Z,51.39
2017-03-26T05:23:20.429Z,51.35
2017-03-26T05:23:42.360Z,51.33
2017-03-26T05:24:08.957Z,51.21
2017-03-26T05:24:30.761Z,50.95
2017-03-26T05:25:02.148Z,50.66
2017-03-26T05:25:23.860Z,50.51
2017-03-26T05:25:50.687Z,50.44
2017-03-26T05:26:12.569Z,50.58
2017-03-26T05:26:44.045Z,50.54
2017-03-26T05:27:06.174Z,50.63
2017-03-26T05:27:59.389Z,50.90
2017-03-26T05:28:28.557Z,50.95
2017-03-26T05:28:50.417Z,51.22
2017-03-26T05:29:21.683Z,52.17
2017-03-26T05:29:43.396Z,52.61
2017-03-26T05:30:41.822Z,52.49
2017-03-26T05:31:08.363Z,52.41
2017-03-26T05:31:30.075Z,52.31
2017-03-26T05:31:51.785Z,52.17
2017-03-26T05:32:23.034Z,51.74
2017-03-26T05:32:44.734Z,51.52
2017-03-26T05:33:06.426Z,51.37
2017-03-26T05:33:32.900Z,51.29
2017-03-26T05:33:54.596Z,51.67
2017-03-26T05:34:16.308Z,51.74
2017-03-26T05:34:42.781Z,52.52
2017-03-26T05:35:04.477Z,52.72
2017-03-26T05:35:30.958Z,53.62
2017-03-26T05:35:52.669Z,53.57
2017-03-26T05:36:23.929Z,53.19